Time;durP1;ratioP1;P1;durP2;ratioP2;P2;SDS_P1;SDS_P2;PMS_P1;PMS_P2;Temp;Humidity;BMP_temperature;BMP_pressure;BME280_temperature;BME280_humidity;BME280_pressure;Samples;Min_cycle;Max_cycle;Signal;HPM_P1;HPM_P2
2022/09/24 00:00:34;;;;;;;;;;;;;;;;;;2123734;27;19923;-42
2022/09/24 00:01:35;;;;;;;;;;;;;;;;;;2125400;27;19927;-42
2022/09/24 00:02:36;;;;;;;;;;;;;;;;;;2132454;27;19923;-41
2022/09/24 00:03:37;;;;;;;;;;;;;;;;;;2132300;27;19923;-42
2022/09/24 00:04:38;;;;;;;;;;;;;;;;;;2132305;27;19923;-42
2022/09/24 00:05:38;;;;;;;;;;;;;;;;;;2132310;27;20457;-42
2022/09/24 00:06:40;;;;;;;;;;;;;;;;;;2132208;27;19923;-43
2022/09/24 00:07:40;;;;;;;;;;;;;;;;;;2132254;27;19923;-42
2022/09/24 00:08:41;;;;;;;;;;;;;;;;;;2132373;27;19924;-42
2022/09/24 00:09:42;;;;;;;;;;;;;;;;;;2132467;27;19934;-42
2022/09/24 00:10:43;;;;;;;;;;;;;;;;;;2132363;27;19923;-42
2022/09/24 00:11:44;;;;;;;;;;;;;;;;;;2125931;27;19931;-42
2022/09/24 00:12:45;;;;;;;;;;;;;;;;;;2123890;28;20292;-42
2022/09/24 00:13:46;;;;;;;;;;;;;;;;;;2123717;28;19931;-42
2022/09/24 00:14:47;;;;;;;;;;;;;;;;;;2123642;28;19924;-42
2022/09/24 00:15:47;;;;;;;;;;;;;;;;;;2123713;28;19930;-42
2022/09/24 00:16:48;;;;;;;;;;;;;;;;;;2123564;27;20342;-42
2022/09/24 00:17:49;;;;;;;;;;;;;;;;;;2123620;28;20368;-42
2022/09/24 00:18:50;;;;;;;;;;;;;;;;;;2123633;28;19923;-42
2022/09/24 00:19:51;;;;;;;;;;;;;;;;;;2123758;28;19923;-42
2022/09/24 00:20:52;;;;;;;;;;;;;;;;;;2123564;28;20307;-42
2022/09/24 00:21:53;;;;;;;;;;;;;;;;;;2123717;27;19977;-42
2022/09/24 00:22:54;;;;;;;;;;;;;;;;;;2123747;28;19927;-42
2022/09/24 00:23:55;;;;;;;;;;;;;;;;;;2123622;28;19923;-42
2022/09/24 00:27:34;;;;;;;;;;;;;;;;;;2123773;28;19923;-45
2022/09/24 00:28:35;;;;;;;;;;;;;;;;;;2123553;28;20030;-45
2022/09/24 00:29:36;;;;;;;;;;;;;;;;;;2123701;28;19924;-44
2022/09/24 00:30:37;;;;;;;;;;;;;;;;;;2123573;28;19946;-44
2022/09/24 00:31:37;;;;;;;;;;;;;;;;;;2123663;27;20014;-44
2022/09/24 00:32:38;;;;;;;;;;;;;;;;;;2123513;28;20331;-44
2022/09/24 00:33:39;;;;;;;;;;;;;;;;;;2123688;28;19927;-44
2022/09/24 00:34:40;;;;;;;;;;;;;;;;;;2123615;28;19930;-44
2022/09/24 00:35:41;;;;;;;;;;;;;;;;;;2123453;28;19929;-44
2022/09/24 00:36:43;;;;;;;;;;;;;;;;;;2123435;27;20403;-44
2022/09/24 00:37:44;;;;;;;;;;;;;;;;;;2123381;27;19923;-44
2022/09/24 00:38:45;;;;;;;;;;;;;;;;;;2123018;28;19923;-44
2022/09/24 00:39:46;;;;;;;;;;;;;;;;;;2123660;28;19923;-45
2022/09/24 00:40:47;;;;;;;;;;;;;;;;;;2123804;28;19924;-44
2022/09/24 00:41:48;;;;;;;;;;;;;;;;;;2123390;27;20002;-44
2022/09/24 00:42:49;;;;;;;;;;;;;;;;;;2123503;28;20023;-44
2022/09/24 00:43:50;;;;;;;;;;;;;;;;;;2123431;28;19923;-45
2022/09/24 00:44:52;;;;;;;;;;;;;;;;;;2123575;28;19930;-45
2022/09/24 00:45:53;;;;;;;;;;;;;;;;;;2123482;28;19924;-44
2022/09/24 00:46:54;;;;;;;;;;;;;;;;;;2123528;27;19931;-44
2022/09/24 00:47:55;;;;;;;;;;;;;;;;;;2123513;28;19923;-45
2022/09/24 00:48:56;;;;;;;;;;;;;;;;;;2123537;28;19965;-45
2022/09/24 00:49:57;;;;;;;;;;;;;;;;;;2123536;28;20385;-44
2022/09/24 00:50:58;;;;;;;;;;;;;;;;;;2123434;28;20306;-45
2022/09/24 00:51:59;;;;;;;;;;;;;;;;;;2123511;27;20432;-45
2022/09/24 00:52:59;;;;;;;;;;;;;;;;;;2123442;28;19928;-44
2022/09/24 00:54:00;;;;;;;;;;;;;;;;;;2123402;28;20012;-44
2022/09/24 00:55:01;;;;;;;;;;;;;;;;;;2123419;28;20346;-45
2022/09/24 00:56:02;;;;;;;;;;;;;;;;;;2123352;28;19923;-44
2022/09/24 00:57:03;;;;;;;;;;;;;;;;;;2123367;27;19962;-44
2022/09/24 00:58:04;;;;;;;;;;;;;;;;;;2126855;27;20415;-44
2022/09/24 00:59:05;;;;;;;;;;;;;;;;;;2131922;27;19931;-45
2022/09/24 01:00:06;;;;;;;;;;;;;;;;;;2131886;27;19923;-44
2022/09/24 01:01:07;;;;;;;;;;;;;;;;;;2132079;27;19923;-44
2022/09/24 01:02:08;;;;;;;;;;;;;;;;;;2131811;27;19923;-45
2022/09/24 01:03:09;;;;;;;;;;;;;;;;;;2131890;27;20298;-44
2022/09/24 01:04:10;;;;;;;;;;;;;;;;;;2131881;27;19956;-44
2022/09/24 01:05:11;;;;;;;;;;;;;;;;;;2131916;27;19969;-45
2022/09/24 01:06:12;;;;;;;;;;;;;;;;;;2131829;27;19927;-45
2022/09/24 01:07:13;;;;;;;;;;;;;;;;;;2131940;27;20288;-44
2022/09/24 01:08:14;;;;;;;;;;;;;;;;;;2131871;27;19924;-44
2022/09/24 01:09:14;;;;;;;;;;;;;;;;;;2132063;27;20411;-46
2022/09/24 01:10:46;;;;;;;;;;;;;;;;;;2131847;27;19923;-44
2022/09/24 01:11:37;;;;;;;;;;;;;;;;;;2127169;27;19931;-44
2022/09/24 01:12:38;;;;;;;;;;;;;;;;;;2123233;28;19931;-44
2022/09/24 01:13:40;;;;;;;;;;;;;;;;;;2123414;28;19924;-44
2022/09/24 01:14:44;;;;;;;;;;;;;;;;;;2123302;28;20327;-44
2022/09/24 01:15:46;;;;;;;;;;;;;;;;;;2123298;28;19923;-44
2022/09/24 01:16:48;;;;;;;;;;;;;;;;;;2123170;27;20300;-45
2022/09/24 01:17:49;;;;;;;;;;;;;;;;;;2123242;28;19966;-44
2022/09/24 01:18:50;;;;;;;;;;;;;;;;;;2123257;28;19923;-44
2022/09/24 01:19:51;;;;;;;;;;;;;;;;;;2123196;28;20376;-44
2022/09/24 01:20:52;;;;;;;;;;;;;;;;;;2123390;28;19930;-44
2022/09/24 01:21:54;;;;;;;;;;;;;;;;;;2123220;27;19924;-44
2022/09/24 01:22:56;;;;;;;;;;;;;;;;;;2123389;28;20261;-44
2022/09/24 01:23:56;;;;;;;;;;;;;;;;;;2123305;28;19972;-44
2022/09/24 01:24:58;;;;;;;;;;;;;;;;;;2123415;28;20407;-45
2022/09/24 01:25:58;;;;;;;;;;;;;;;;;;2123252;28;19927;-44
2022/09/24 01:26:59;;;;;;;;;;;;;;;;;;2123082;27;19933;-45
2022/09/24 01:28:00;;;;;;;;;;;;;;;;;;2123338;28;19923;-44
2022/09/24 01:29:04;;;;;;;;;;;;;;;;;;2123154;28;19923;-44
2022/09/24 01:30:05;;;;;;;;;;;;;;;;;;2123199;28;19927;-44
2022/09/24 01:31:06;;;;;;;;;;;;;;;;;;2123497;28;19948;-42
2022/09/24 01:32:07;;;;;;;;;;;;;;;;;;2123265;27;19951;-42
2022/09/24 01:33:09;;;;;;;;;;;;;;;;;;2123329;28;19923;-42
2022/09/24 01:34:11;;;;;;;;;;;;;;;;;;2123152;28;19927;-42
2022/09/24 01:35:12;;;;;;;;;;;;;;;;;;2123124;28;20372;-42
2022/09/24 01:36:13;;;;;;;;;;;;;;;;;;2123096;28;19924;-42
2022/09/24 01:37:14;;;;;;;;;;;;;;;;;;2123171;27;19930;-42
2022/09/24 01:38:15;;;;;;;;;;;;;;;;;;2123118;28;19927;-42
2022/09/24 01:39:16;;;;;;;;;;;;;;;;;;2123203;28;20373;-42
2022/09/24 01:40:16;;;;;;;;;;;;;;;;;;2123171;28;20312;-42
2022/09/24 01:41:18;;;;;;;;;;;;;;;;;;2123520;28;20015;-42
2022/09/24 01:42:19;;;;;;;;;;;;;;;;;;2123093;28;20311;-42
2022/09/24 01:43:20;;;;;;;;;;;;;;;;;;2123149;28;19927;-42
2022/09/24 01:44:20;;;;;;;;;;;;;;;;;;2123188;28;19931;-42
2022/09/24 01:45:21;;;;;;;;;;;;;;;;;;2123096;28;19984;-42
2022/09/24 01:46:22;;;;;;;;;;;;;;;;;;2123170;27;19949;-42
2022/09/24 01:47:24;;;;;;;;;;;;;;;;;;2123294;28;19930;-42
2022/09/24 01:48:25;;;;;;;;;;;;;;;;;;2123136;28;20384;-42
2022/09/24 01:49:26;;;;;;;;;;;;;;;;;;2123313;27;19927;-44
2022/09/24 01:50:27;;;;;;;;;;;;;;;;;;2123754;28;19931;-44
2022/09/24 01:51:28;;;;;;;;;;;;;;;;;;2124548;27;19927;-45
2022/09/24 01:52:29;;;;;;;;;;;;;;;;;;2124631;28;19927;-44
2022/09/24 01:53:30;;;;;;;;;;;;;;;;;;2124511;27;19930;-44
2022/09/24 01:54:31;;;;;;;;;;;;;;;;;;2129936;27;19923;-44
2022/09/24 01:55:33;;;;;;;;;;;;;;;;;;2133072;27;19991;-44
2022/09/24 01:56:34;;;;;;;;;;;;;;;;;;2133117;27;20400;-45
2022/09/24 01:57:35;;;;;;;;;;;;;;;;;;2133265;27;19924;-42
2022/09/24 01:58:36;;;;;;;;;;;;;;;;;;2133317;27;19930;-42
2022/09/24 01:59:37;;;;;;;;;;;;;;;;;;2133298;27;19923;-42
2022/09/24 02:00:37;;;;;;;;;;;;;;;;;;2133125;27;19929;-42
2022/09/24 02:01:39;;;;;;;;;;;;;;;;;;2133085;27;19929;-43
2022/09/24 02:02:41;;;;;;;;;;;;;;;;;;2133190;27;20391;-42
2022/09/24 02:03:42;;;;;;;;;;;;;;;;;;2133184;27;19930;-42
2022/09/24 02:04:44;;;;;;;;;;;;;;;;;;2133096;27;20291;-42
2022/09/24 02:05:45;;;;;;;;;;;;;;;;;;2133192;27;19923;-42
2022/09/24 02:06:46;;;;;;;;;;;;;;;;;;2133127;27;19924;-42
2022/09/24 02:07:49;;;;;;;;;;;;;;;;;;2133136;27;20317;-42
2022/09/24 02:08:50;;;;;;;;;;;;;;;;;;2133209;27;19967;-44
2022/09/24 02:09:51;;;;;;;;;;;;;;;;;;2133061;27;19930;-45
2022/09/24 02:10:52;;;;;;;;;;;;;;;;;;2133061;27;19930;-44
2022/09/24 02:11:53;;;;;;;;;;;;;;;;;;2125395;27;19923;-46
2022/09/24 02:12:54;;;;;;;;;;;;;;;;;;2124684;28;19924;-44
2022/09/24 02:13:55;;;;;;;;;;;;;;;;;;2124555;28;20353;-44
2022/09/24 02:14:56;;;;;;;;;;;;;;;;;;2124609;28;19930;-45
2022/09/24 02:15:56;;;;;;;;;;;;;;;;;;2124419;28;19924;-44
2022/09/24 02:16:58;;;;;;;;;;;;;;;;;;2124445;27;20463;-45
2022/09/24 02:17:58;;;;;;;;;;;;;;;;;;2124522;28;19931;-45
2022/09/24 02:18:59;;;;;;;;;;;;;;;;;;2124597;28;19927;-45
2022/09/24 02:20:00;;;;;;;;;;;;;;;;;;2124486;28;19923;-44
2022/09/24 02:21:02;;;;;;;;;;;;;;;;;;2124412;28;19924;-45
2022/09/24 02:22:03;;;;;;;;;;;;;;;;;;2124348;27;19930;-44
2022/09/24 02:23:04;;;;;;;;;;;;;;;;;;2124438;28;19927;-45
2022/09/24 02:24:04;;;;;;;;;;;;;;;;;;2124339;28;19929;-44
2022/09/24 02:25:05;;;;;;;;;;;;;;;;;;2124374;28;19923;-44
2022/09/24 02:26:06;;;;;;;;;;;;;;;;;;2124548;28;19930;-45
2022/09/24 02:27:07;;;;;;;;;;;;;;;;;;2124357;27;19924;-44
2022/09/24 02:28:08;;;;;;;;;;;;;;;;;;2124548;28;19923;-45
2022/09/24 02:29:09;;;;;;;;;;;;;;;;;;2124345;28;19929;-45
2022/09/24 02:30:09;;;;;;;;;;;;;;;;;;2124453;28;20281;-45
2022/09/24 02:31:11;;;;;;;;;;;;;;;;;;2124491;28;19963;-44
2022/09/24 02:32:11;;;;;;;;;;;;;;;;;;2124237;27;20388;-45
2022/09/24 02:34:28;;;;;;;;;;;;;;;;;;2123579;28;20284;-44
2022/09/24 02:35:29;;;;;;;;;;;;;;;;;;2124453;28;19923;-45
2022/09/24 02:36:30;;;;;;;;;;;;;;;;;;2124104;27;19927;-45
2022/09/24 02:37:31;;;;;;;;;;;;;;;;;;2124456;28;19924;-44
2022/09/24 02:38:33;;;;;;;;;;;;;;;;;;2124338;28;20360;-44
2022/09/24 02:39:35;;;;;;;;;;;;;;;;;;2124358;28;20381;-45
2022/09/24 02:40:36;;;;;;;;;;;;;;;;;;2124314;28;19929;-44
2022/09/24 02:41:37;;;;;;;;;;;;;;;;;;2124482;27;19923;-44
2022/09/24 02:42:39;;;;;;;;;;;;;;;;;;2124218;28;19923;-46
2022/09/24 02:43:40;;;;;;;;;;;;;;;;;;2124425;28;19936;-45
2022/09/24 02:44:41;;;;;;;;;;;;;;;;;;2124318;28;19963;-46
2022/09/24 02:45:42;;;;;;;;;;;;;;;;;;2124197;28;20377;-45
2022/09/24 02:46:43;;;;;;;;;;;;;;;;;;2124241;27;19923;-45
2022/09/24 02:47:44;;;;;;;;;;;;;;;;;;2124371;28;19931;-45
2022/09/24 02:48:45;;;;;;;;;;;;;;;;;;2124247;28;20380;-45
2022/09/24 02:49:46;;;;;;;;;;;;;;;;;;2124179;27;19934;-45
2022/09/24 02:50:46;;;;;;;;;;;;;;;;;;2129535;27;19929;-45
2022/09/24 02:51:47;;;;;;;;;;;;;;;;;;2132663;27;19931;-45
2022/09/24 02:52:48;;;;;;;;;;;;;;;;;;2132833;27;20368;-45
2022/09/24 02:53:49;;;;;;;;;;;;;;;;;;2132892;27;19934;-44
2022/09/24 02:54:50;;;;;;;;;;;;;;;;;;2132759;27;19930;-45
2022/09/24 02:55:51;;;;;;;;;;;;;;;;;;2132853;27;19923;-45
2022/09/24 02:56:52;;;;;;;;;;;;;;;;;;2132617;27;20291;-45
2022/09/24 02:57:53;;;;;;;;;;;;;;;;;;2132720;27;20431;-46
2022/09/24 02:58:54;;;;;;;;;;;;;;;;;;2132775;27;19923;-45
2022/09/24 02:59:55;;;;;;;;;;;;;;;;;;2132929;27;20352;-45
2022/09/24 03:00:56;;;;;;;;;;;;;;;;;;2132561;27;19930;-46
2022/09/24 03:01:57;;;;;;;;;;;;;;;;;;2132591;27;19923;-46
2022/09/24 03:02:58;;;;;;;;;;;;;;;;;;2132706;27;19927;-44
2022/09/24 03:03:59;;;;;;;;;;;;;;;;;;2132725;27;19923;-45
2022/09/24 03:05:00;;;;;;;;;;;;;;;;;;2132678;27;19927;-45
2022/09/24 03:06:00;;;;;;;;;;;;;;;;;;2132666;27;19923;-45
2022/09/24 03:07:02;;;;;;;;;;;;;;;;;;2132816;27;19968;-43
2022/09/24 03:08:03;;;;;;;;;;;;;;;;;;2132598;27;19923;-42
2022/09/24 03:09:04;;;;;;;;;;;;;;;;;;2132815;27;19927;-42
2022/09/24 03:10:05;;;;;;;;;;;;;;;;;;2132731;27;20315;-41
2022/09/24 03:11:06;;;;;;;;;;;;;;;;;;2132044;27;19930;-41
2022/09/24 03:12:07;;;;;;;;;;;;;;;;;;2123982;27;19923;-41
2022/09/24 03:13:10;;;;;;;;;;;;;;;;;;2124288;28;19923;-41
2022/09/24 03:14:10;;;;;;;;;;;;;;;;;;2124150;28;19924;-41
2022/09/24 03:15:11;;;;;;;;;;;;;;;;;;2124352;28;20337;-42
2022/09/24 03:16:12;;;;;;;;;;;;;;;;;;2124088;28;19923;-42
2022/09/24 03:17:13;;;;;;;;;;;;;;;;;;2124001;27;20288;-42
2022/09/24 03:18:14;;;;;;;;;;;;;;;;;;2123995;28;19971;-43
2022/09/24 03:19:15;;;;;;;;;;;;;;;;;;2124041;28;19934;-43
2022/09/24 03:20:16;;;;;;;;;;;;;;;;;;2124193;28;19940;-42
2022/09/24 03:21:17;;;;;;;;;;;;;;;;;;2124020;28;20018;-42
2022/09/24 03:22:17;;;;;;;;;;;;;;;;;;2124174;28;19924;-42
2022/09/24 03:23:18;;;;;;;;;;;;;;;;;;2124093;28;19924;-42
2022/09/24 03:24:19;;;;;;;;;;;;;;;;;;2124002;28;19928;-42
2022/09/24 03:25:20;;;;;;;;;;;;;;;;;;2124093;28;19931;-43
2022/09/24 03:26:21;;;;;;;;;;;;;;;;;;2124069;27;19968;-42
2022/09/24 03:27:22;;;;;;;;;;;;;;;;;;2124030;28;20388;-42
2022/09/24 03:28:22;;;;;;;;;;;;;;;;;;2123987;28;19924;-43
2022/09/24 03:31:58;;;;;;;;;;;;;;;;;;2123865;27;19927;-44
2022/09/24 03:32:59;;;;;;;;;;;;;;;;;;2123887;28;20025;-42
2022/09/24 03:34:00;;;;;;;;;;;;;;;;;;2124018;28;19923;-43
2022/09/24 03:35:01;;;;;;;;;;;;;;;;;;2123876;28;20288;-43
2022/09/24 03:36:02;;;;;;;;;;;;;;;;;;2123894;28;19923;-42
2022/09/24 03:37:03;;;;;;;;;;;;;;;;;;2123846;27;19930;-42
2022/09/24 03:38:04;;;;;;;;;;;;;;;;;;2123937;28;19928;-42
2022/09/24 03:39:05;;;;;;;;;;;;;;;;;;2124018;28;19927;-42
2022/09/24 03:40:06;;;;;;;;;;;;;;;;;;2123946;28;20360;-42
2022/09/24 03:41:07;;;;;;;;;;;;;;;;;;2123833;28;19923;-43
2022/09/24 03:42:08;;;;;;;;;;;;;;;;;;2123941;27;20280;-43
2022/09/24 03:43:09;;;;;;;;;;;;;;;;;;2124043;28;19930;-42
2022/09/24 03:44:10;;;;;;;;;;;;;;;;;;2123784;28;20407;-43
2022/09/24 03:45:11;;;;;;;;;;;;;;;;;;2124111;27;19924;-42
2022/09/24 03:46:12;;;;;;;;;;;;;;;;;;2123871;28;19923;-45
2022/09/24 03:47:13;;;;;;;;;;;;;;;;;;2130651;27;20291;-44
2022/09/24 03:48:14;;;;;;;;;;;;;;;;;;2132486;27;19923;-47
2022/09/24 03:49:16;;;;;;;;;;;;;;;;;;2132574;27;19934;-45
2022/09/24 03:50:17;;;;;;;;;;;;;;;;;;2132459;27;19930;-45
2022/09/24 03:51:18;;;;;;;;;;;;;;;;;;2132447;27;19929;-46
2022/09/24 03:52:19;;;;;;;;;;;;;;;;;;2132353;27;19982;-45
2022/09/24 03:53:20;;;;;;;;;;;;;;;;;;2132372;27;19927;-45
2022/09/24 03:54:21;;;;;;;;;;;;;;;;;;2132376;27;19923;-45
2022/09/24 03:55:22;;;;;;;;;;;;;;;;;;2132393;27;19923;-45
2022/09/24 03:56:23;;;;;;;;;;;;;;;;;;2132351;27;20022;-44
2022/09/24 03:57:24;;;;;;;;;;;;;;;;;;2132384;27;19927;-45
2022/09/24 03:58:25;;;;;;;;;;;;;;;;;;2132595;27;19923;-44
2022/09/24 03:59:26;;;;;;;;;;;;;;;;;;2132311;27;19975;-45
2022/09/24 04:00:26;;;;;;;;;;;;;;;;;;2132721;27;19923;-45
2022/09/24 04:01:27;;;;;;;;;;;;;;;;;;2132268;27;20356;-45
2022/09/24 04:02:28;;;;;;;;;;;;;;;;;;2132298;27;19930;-44
2022/09/24 04:03:29;;;;;;;;;;;;;;;;;;2132433;27;19927;-45
2022/09/24 04:04:30;;;;;;;;;;;;;;;;;;2132300;27;20277;-45
2022/09/24 04:05:31;;;;;;;;;;;;;;;;;;2132535;27;19929;-42
2022/09/24 04:06:32;;;;;;;;;;;;;;;;;;2132208;27;19927;-42
2022/09/24 04:07:33;;;;;;;;;;;;;;;;;;2132371;27;20294;-42
2022/09/24 04:08:33;;;;;;;;;;;;;;;;;;2132256;27;19923;-43
2022/09/24 04:09:34;;;;;;;;;;;;;;;;;;2132322;27;19923;-42
2022/09/24 04:10:35;;;;;;;;;;;;;;;;;;2132451;27;20505;-42
2022/09/24 04:11:36;;;;;;;;;;;;;;;;;;2127130;27;19924;-42
2022/09/24 04:12:37;;;;;;;;;;;;;;;;;;2123403;27;19934;-42
2022/09/24 04:13:38;;;;;;;;;;;;;;;;;;2123242;28;20284;-43
2022/09/24 04:14:39;;;;;;;;;;;;;;;;;;2123684;28;19924;-43
2022/09/24 04:15:40;;;;;;;;;;;;;;;;;;2123630;28;19928;-42
2022/09/24 04:16:41;;;;;;;;;;;;;;;;;;2123810;27;20411;-45
2022/09/24 04:17:42;;;;;;;;;;;;;;;;;;2123588;28;19923;-46
2022/09/24 04:18:42;;;;;;;;;;;;;;;;;;2123632;28;19923;-45
2022/09/24 04:19:43;;;;;;;;;;;;;;;;;;2123697;28;19938;-46
2022/09/24 04:20:44;;;;;;;;;;;;;;;;;;2123651;28;19929;-45
2022/09/24 04:21:45;;;;;;;;;;;;;;;;;;2123614;27;19930;-45
2022/09/24 04:22:46;;;;;;;;;;;;;;;;;;2123983;28;19923;-42
2022/09/24 04:23:47;;;;;;;;;;;;;;;;;;2123785;28;19931;-42
2022/09/24 04:24:48;;;;;;;;;;;;;;;;;;2123630;28;20150;-42
2022/09/24 04:25:49;;;;;;;;;;;;;;;;;;2124128;28;19923;-43
2022/09/24 04:26:49;;;;;;;;;;;;;;;;;;2123756;27;19927;-46
2022/09/24 04:27:50;;;;;;;;;;;;;;;;;;2123570;28;19942;-46
2022/09/24 04:28:51;;;;;;;;;;;;;;;;;;2123585;28;19946;-45
2022/09/24 04:29:53;;;;;;;;;;;;;;;;;;2123789;28;19923;-42
2022/09/24 04:30:54;;;;;;;;;;;;;;;;;;2123576;28;19931;-42
2022/09/24 04:31:55;;;;;;;;;;;;;;;;;;2123551;27;20299;-42
2022/09/24 04:32:59;;;;;;;;;;;;;;;;;;2123648;28;19923;-42
2022/09/24 04:34:00;;;;;;;;;;;;;;;;;;2123540;28;20319;-43
2022/09/24 04:35:01;;;;;;;;;;;;;;;;;;2123626;28;19924;-42
2022/09/24 04:36:08;;;;;;;;;;;;;;;;;;2123752;28;19934;-43
2022/09/24 04:37:09;;;;;;;;;;;;;;;;;;2123577;27;19973;-42
2022/09/24 04:38:10;;;;;;;;;;;;;;;;;;2123507;28;19927;-42
2022/09/24 04:39:10;;;;;;;;;;;;;;;;;;2123649;28;19923;-43
2022/09/24 04:40:11;;;;;;;;;;;;;;;;;;2123525;28;19924;-43
2022/09/24 04:41:14;;;;;;;;;;;;;;;;;;2123595;28;19949;-42
2022/09/24 04:42:15;;;;;;;;;;;;;;;;;;2123503;27;19973;-45
2022/09/24 04:43:17;;;;;;;;;;;;;;;;;;2128804;27;19923;-44
2022/09/24 04:44:18;;;;;;;;;;;;;;;;;;2132113;27;19930;-45
2022/09/24 04:45:19;;;;;;;;;;;;;;;;;;2132174;27;19927;-45
2022/09/24 04:46:20;;;;;;;;;;;;;;;;;;2131942;27;19927;-45
2022/09/24 04:47:24;;;;;;;;;;;;;;;;;;2132212;27;20038;-43
2022/09/24 04:48:25;;;;;;;;;;;;;;;;;;2132116;27;19937;-43
2022/09/24 04:49:28;;;;;;;;;;;;;;;;;;2132193;27;19927;-42
2022/09/24 04:50:32;;;;;;;;;;;;;;;;;;2132358;27;19923;-43
2022/09/24 04:51:34;;;;;;;;;;;;;;;;;;2131879;27;19923;-42
2022/09/24 04:52:35;;;;;;;;;;;;;;;;;;2132097;27;19930;-43
2022/09/24 04:53:36;;;;;;;;;;;;;;;;;;2132032;27;19971;-42
2022/09/24 04:54:37;;;;;;;;;;;;;;;;;;2131948;27;19923;-43
2022/09/24 04:55:38;;;;;;;;;;;;;;;;;;2132058;27;19923;-42
2022/09/24 04:56:39;;;;;;;;;;;;;;;;;;2131959;27;19930;-42
2022/09/24 04:57:40;;;;;;;;;;;;;;;;;;2131896;27;19927;-42
2022/09/24 04:58:41;;;;;;;;;;;;;;;;;;2132112;27;19930;-42
2022/09/24 04:59:42;;;;;;;;;;;;;;;;;;2132086;27;19923;-43
2022/09/24 05:00:43;;;;;;;;;;;;;;;;;;2131887;27;20021;-43
2022/09/24 05:01:45;;;;;;;;;;;;;;;;;;2132046;27;19923;-42
2022/09/24 05:02:46;;;;;;;;;;;;;;;;;;2131900;27;20443;-42
2022/09/24 05:03:47;;;;;;;;;;;;;;;;;;2131707;27;19926;-42
2022/09/24 05:04:49;;;;;;;;;;;;;;;;;;2132218;27;19930;-45
2022/09/24 05:05:49;;;;;;;;;;;;;;;;;;2131906;27;19933;-45
2022/09/24 05:06:50;;;;;;;;;;;;;;;;;;2131792;27;20429;-45
2022/09/24 05:07:51;;;;;;;;;;;;;;;;;;2131937;27;19924;-45
2022/09/24 05:08:52;;;;;;;;;;;;;;;;;;2132195;27;19969;-45
2022/09/24 05:09:53;;;;;;;;;;;;;;;;;;2132220;27;19923;-43
2022/09/24 05:10:54;;;;;;;;;;;;;;;;;;2131907;27;20280;-42
2022/09/24 05:11:55;;;;;;;;;;;;;;;;;;2131682;27;19923;-42
2022/09/24 05:12:56;;;;;;;;;;;;;;;;;;2132212;27;19923;-44
2022/09/24 05:13:56;;;;;;;;;;;;;;;;;;2131937;27;19923;-45
2022/09/24 05:14:57;;;;;;;;;;;;;;;;;;2132005;27;19923;-45
2022/09/24 05:15:59;;;;;;;;;;;;;;;;;;2131929;27;20291;-42
2022/09/24 05:17:00;;;;;;;;;;;;;;;;;;2131765;27;19926;-43
2022/09/24 05:18:01;;;;;;;;;;;;;;;;;;2132195;27;19923;-45
2022/09/24 05:19:03;;;;;;;;;;;;;;;;;;2132162;27;19924;-45
2022/09/24 05:20:04;;;;;;;;;;;;;;;;;;2131982;27;19927;-45
2022/09/24 05:21:05;;;;;;;;;;;;;;;;;;2131963;27;19929;-45
2022/09/24 05:22:06;;;;;;;;;;;;;;;;;;2131743;27;20292;-47
2022/09/24 05:23:07;;;;;;;;;;;;;;;;;;2132076;27;19929;-45
2022/09/24 05:24:08;;;;;;;;;;;;;;;;;;2131722;27;20010;-46
2022/09/24 05:25:08;;;;;;;;;;;;;;;;;;2131775;27;20019;-45
2022/09/24 05:27:28;;;;;;;;;;;;;;;;;;2132013;27;19923;-42
2022/09/24 05:28:31;;;;;;;;;;;;;;;;;;2131883;27;19923;-42
2022/09/24 05:29:33;;;;;;;;;;;;;;;;;;2131811;27;19923;-42
2022/09/24 05:30:33;;;;;;;;;;;;;;;;;;2132105;27;19927;-45
2022/09/24 05:31:35;;;;;;;;;;;;;;;;;;2131836;27;19923;-45
2022/09/24 05:32:36;;;;;;;;;;;;;;;;;;2131907;27;19923;-45
2022/09/24 05:33:37;;;;;;;;;;;;;;;;;;2131831;27;20264;-44
2022/09/24 05:34:40;;;;;;;;;;;;;;;;;;2132007;27;19924;-45
2022/09/24 05:35:41;;;;;;;;;;;;;;;;;;2131798;27;19948;-45
2022/09/24 05:36:42;;;;;;;;;;;;;;;;;;2131798;27;19924;-45
2022/09/24 05:37:43;;;;;;;;;;;;;;;;;;2131745;27;19923;-45
2022/09/24 05:38:43;;;;;;;;;;;;;;;;;;2131695;27;19968;-46
2022/09/24 05:39:44;;;;;;;;;;;;;;;;;;2131706;27;20123;-45
2022/09/24 05:40:48;;;;;;;;;;;;;;;;;;2132213;27;19923;-45
2022/09/24 05:41:49;;;;;;;;;;;;;;;;;;2131653;27;19923;-45
2022/09/24 05:42:50;;;;;;;;;;;;;;;;;;2131780;27;19927;-45
2022/09/24 05:43:51;;;;;;;;;;;;;;;;;;2131721;27;19923;-46
2022/09/24 05:44:52;;;;;;;;;;;;;;;;;;2131640;27;19923;-45
2022/09/24 05:45:53;;;;;;;;;;;;;;;;;;2131807;27;19930;-44
2022/09/24 05:46:54;;;;;;;;;;;;;;;;;;2131769;27;19988;-45
2022/09/24 05:47:55;;;;;;;;;;;;;;;;;;2131694;27;19923;-45
2022/09/24 05:48:56;;;;;;;;;;;;;;;;;;2131816;27;19923;-45
2022/09/24 05:49:56;;;;;;;;;;;;;;;;;;2131693;27;20384;-45
2022/09/24 05:50:58;;;;;;;;;;;;;;;;;;2131838;27;19930;-45
2022/09/24 05:52:00;;;;;;;;;;;;;;;;;;2131659;27;19923;-45
2022/09/24 05:53:01;;;;;;;;;;;;;;;;;;2132425;27;19930;-45
2022/09/24 05:54:02;;;;;;;;;;;;;;;;;;2131670;27;19923;-44
2022/09/24 05:55:03;;;;;;;;;;;;;;;;;;2131630;27;20376;-46
2022/09/24 05:56:04;;;;;;;;;;;;;;;;;;2131598;27;19966;-45
2022/09/24 05:57:05;;;;;;;;;;;;;;;;;;2131775;27;19926;-45
2022/09/24 05:58:06;;;;;;;;;;;;;;;;;;2131959;27;19945;-42
2022/09/24 05:59:06;;;;;;;;;;;;;;;;;;2131632;27;19923;-43
2022/09/24 06:00:07;;;;;;;;;;;;;;;;;;2131652;27;19930;-42
2022/09/24 06:01:08;;;;;;;;;;;;;;;;;;2131611;27;19923;-43
2022/09/24 06:02:09;;;;;;;;;;;;;;;;;;2131760;27;19957;-42
2022/09/24 06:03:10;;;;;;;;;;;;;;;;;;2132039;27;20021;-46
2022/09/24 06:04:11;;;;;;;;;;;;;;;;;;2132177;27;19945;-42
2022/09/24 06:05:12;;;;;;;;;;;;;;;;;;2131536;27;19927;-43
2022/09/24 06:06:13;;;;;;;;;;;;;;;;;;2131917;27;20415;-43
2022/09/24 06:07:14;;;;;;;;;;;;;;;;;;2131506;27;19960;-42
2022/09/24 06:08:15;;;;;;;;;;;;;;;;;;2131782;27;19923;-45
2022/09/24 06:09:16;;;;;;;;;;;;;;;;;;2131613;27;19939;-46
2022/09/24 06:10:16;;;;;;;;;;;;;;;;;;2132041;27;20021;-43
2022/09/24 06:11:18;;;;;;;;;;;;;;;;;;2131420;27;20320;-43
2022/09/24 06:12:21;;;;;;;;;;;;;;;;;;2131647;27;19923;-42
2022/09/24 06:13:21;;;;;;;;;;;;;;;;;;2131746;27;19931;-46
2022/09/24 06:14:22;;;;;;;;;;;;;;;;;;2131640;27;19929;-44
2022/09/24 06:15:25;;;;;;;;;;;;;;;;;;2131555;27;19923;-45
2022/09/24 06:16:26;;;;;;;;;;;;;;;;;;2131348;27;20375;-46
2022/09/24 06:17:27;;;;;;;;;;;;;;;;;;2131839;27;19923;-42
2022/09/24 06:18:28;;;;;;;;;;;;;;;;;;2131521;27;19923;-43
2022/09/24 06:19:29;;;;;;;;;;;;;;;;;;2131492;27;19931;-43
2022/09/24 06:20:30;;;;;;;;;;;;;;;;;;2131693;27;19934;-42
2022/09/24 06:21:31;;;;;;;;;;;;;;;;;;2131408;27;19923;-43
2022/09/24 06:22:32;;;;;;;;;;;;;;;;;;2131625;27;19980;-43
2022/09/24 06:23:33;;;;;;;;;;;;;;;;;;2131419;27;20372;-43
2022/09/24 06:24:34;;;;;;;;;;;;;;;;;;2131867;27;19923;-45
2022/09/24 06:25:35;;;;;;;;;;;;;;;;;;2131725;27;19968;-45
2022/09/24 06:26:36;;;;;;;;;;;;;;;;;;2131489;27;19923;-46
2022/09/24 06:27:37;;;;;;;;;;;;;;;;;;2131419;27;19923;-45
2022/09/24 06:28:38;;;;;;;;;;;;;;;;;;2131646;27;19930;-45
2022/09/24 06:29:39;;;;;;;;;;;;;;;;;;2131603;27;19930;-45
2022/09/24 06:30:40;;;;;;;;;;;;;;;;;;2131499;27;20487;-45
2022/09/24 06:31:41;;;;;;;;;;;;;;;;;;2131735;27;19923;-43
2022/09/24 06:32:42;;;;;;;;;;;;;;;;;;2131386;27;20399;-43
2022/09/24 06:33:43;;;;;;;;;;;;;;;;;;2131595;27;19923;-43
2022/09/24 06:34:44;;;;;;;;;;;;;;;;;;2131615;27;19923;-45
2022/09/24 06:35:45;;;;;;;;;;;;;;;;;;2131445;27;20397;-43
2022/09/24 06:36:46;;;;;;;;;;;;;;;;;;2132153;27;19923;-43
2022/09/24 06:37:48;;;;;;;;;;;;;;;;;;2133246;27;19952;-43
2022/09/24 06:38:49;;;;;;;;;;;;;;;;;;2133209;27;19923;-43
2022/09/24 06:39:49;;;;;;;;;;;;;;;;;;2132847;27;20386;-43
2022/09/24 06:40:50;;;;;;;;;;;;;;;;;;2133434;27;19934;-45
2022/09/24 06:41:51;;;;;;;;;;;;;;;;;;2132762;27;20269;-45
2022/09/24 06:42:52;;;;;;;;;;;;;;;;;;2132803;27;19968;-45
2022/09/24 06:43:53;;;;;;;;;;;;;;;;;;2132898;27;19929;-46
2022/09/24 06:44:54;;;;;;;;;;;;;;;;;;2133246;27;19927;-44
2022/09/24 06:45:55;;;;;;;;;;;;;;;;;;2133395;27;19923;-43
2022/09/24 06:46:56;;;;;;;;;;;;;;;;;;2133164;27;19923;-45
2022/09/24 06:47:57;;;;;;;;;;;;;;;;;;2133180;27;19955;-45
2022/09/24 06:48:58;;;;;;;;;;;;;;;;;;2133411;27;19949;-45
2022/09/24 06:49:59;;;;;;;;;;;;;;;;;;2133187;27;19971;-46
2022/09/24 06:51:00;;;;;;;;;;;;;;;;;;2132821;27;19927;-45
2022/09/24 06:52:01;;;;;;;;;;;;;;;;;;2132856;27;19971;-46
2022/09/24 06:53:02;;;;;;;;;;;;;;;;;;2132762;27;19986;-44
2022/09/24 06:54:03;;;;;;;;;;;;;;;;;;2132791;27;19948;-45
2022/09/24 06:55:03;;;;;;;;;;;;;;;;;;2133130;27;19923;-44
2022/09/24 06:56:06;;;;;;;;;;;;;;;;;;2132691;27;19927;-42
2022/09/24 06:57:06;;;;;;;;;;;;;;;;;;2133229;27;19929;-43
2022/09/24 06:58:07;;;;;;;;;;;;;;;;;;2132908;27;19923;-43
2022/09/24 06:59:08;;;;;;;;;;;;;;;;;;2133085;27;19929;-45
2022/09/24 07:00:09;;;;;;;;;;;;;;;;;;2132778;27;20342;-44
2022/09/24 07:01:10;;;;;;;;;;;;;;;;;;2132945;27;19927;-44
2022/09/24 07:02:11;;;;;;;;;;;;;;;;;;2133168;27;20013;-45
2022/09/24 07:03:12;;;;;;;;;;;;;;;;;;2133111;27;20022;-42
2022/09/24 07:04:13;;;;;;;;;;;;;;;;;;2132734;27;19923;-43
2022/09/24 07:05:14;;;;;;;;;;;;;;;;;;2132710;27;19923;-43